الصفحة الرئيسية
METAR-TAF:

METAR-TAF

مطار :

فوكوكا, اليابان

دائرة عرض: 33-35N, خط طول: 130-27E, ارتفاع: 9 متر

مراقبة الطقس الحالي

تاريخ ووقت الإصدار 40 دقيقة قبل الساعة 20:00UTC
ريح 3 عقدة من الشرق/الجنوب الشرقي
درجة الحرارة 15°درجة مئوية
الرطوبة 77%
ضغط 1012 hPa
الرؤية 10 كم أو أكثر

METAR: RJFF 292000Z AUTO 11003KT 9999 NCD 15/11 Q1012 NOSIG RMK A2989

زمن: 05:40 (20:40 UTC)

توقعات

تاريخ ووقت الإصدار 3ساعات و 35 دقيقة قبل الساعة 17:05UTC
التوقعات صالحة من29 الساعة 18 UTC إلى 31 الساعة 00 UTC
ريح 5 عقدة من الجنوب/الجنوب الشرقي
الرؤية 10 كم أو أكثر
الغيوم لا تقل 1500 م ولا وجود لمزنة ركامية السحاب الأسود
أصبح
من 30 الساعة 01 UTC إلى 30 الساعة 03 UTC
ريح 11 عقدة من الشمال الغربي
أصبح
من 30 الساعة 09 UTC إلى 30 الساعة 12 UTC
ريح 4 عقدة من الجنوب الشرقي

TAF: RJFF 291705Z 2918/3100 15005KT CAVOK BECMG 3001/3003 31011KT BECMG 3009/3012 14004KT

أرصاد الطقس والتوقعات من أكثر من 4000 مطار (تقارير الطقس للمطار METAR والتنبؤ بالطقس بالمطارTAF).

المحطات المتاحة هي النقط الصفراء والحمراء على الخريطة.

حرك المؤشر فوق النقطة لمعرفة اسم المحطة.

ثم انقر لمعرفة أرصاد وتوقعات الطقس.

لتغيير الخارطة: اضغط على الأزرار الخضراء مع رمز الصليب الأسود للتكبير. على الزر الأخضر مع شرطة للتصغير، أو على الأسهم الخضراء للخرائط المجاورة.


METAR-TAF: